createdAt,value
2022-10-02T00:02:27.093Z,1.20
2022-10-02T00:05:04.011Z,1.13
2022-10-02T00:07:43.255Z,1.20
2022-10-02T00:10:26.663Z,1.45
2022-10-02T00:12:58.723Z,1.27
2022-10-02T00:15:32.629Z,1.20
2022-10-02T00:18:04.568Z,2.42
2022-10-02T00:20:46.578Z,1.20
2022-10-02T00:23:41.743Z,1.00
2022-10-02T00:26:24.359Z,1.17
2022-10-02T00:29:29.761Z,1.67
2022-10-02T00:32:12.360Z,1.20
2022-10-02T00:34:56.789Z,1.52
2022-10-02T00:37:43.503Z,1.25
2022-10-02T00:40:13.338Z,1.30
2022-10-02T00:43:03.969Z,1.48
2022-10-02T00:46:04.320Z,1.67
2022-10-02T00:48:43.818Z,1.30
2022-10-02T00:51:43.223Z,1.35
2022-10-02T00:54:25.594Z,1.50
2022-10-02T00:57:18.044Z,1.33
2022-10-02T01:00:01.940Z,1.42
2022-10-02T01:02:32.079Z,1.38
2022-10-02T01:05:02.444Z,1.65
2022-10-02T01:07:30.173Z,1.27
2022-10-02T01:09:57.623Z,1.50
2022-10-02T01:12:25.061Z,1.60
2022-10-02T01:14:52.223Z,1.20
2022-10-02T01:17:26.028Z,1.42
2022-10-02T01:19:54.834Z,1.50
2022-10-02T01:22:43.148Z,1.75
2022-10-02T01:25:10.673Z,1.67
2022-10-02T01:27:39.503Z,1.20
2022-10-02T01:30:09.987Z,1.13
2022-10-02T01:32:42.843Z,1.23
2022-10-02T01:35:10.444Z,1.15
2022-10-02T01:37:41.383Z,1.33
2022-10-02T01:40:22.464Z,1.10
2022-10-02T01:42:51.068Z,0.90
2022-10-02T01:45:28.432Z,0.98
2022-10-02T01:48:20.109Z,1.20
2022-10-02T01:50:56.222Z,1.10
2022-10-02T01:53:37.443Z,1.35
2022-10-02T01:56:31.554Z,1.20
2022-10-02T01:59:11.933Z,2.00
2022-10-02T02:02:05.701Z,2.85
2022-10-02T02:04:50.363Z,2.00
2022-10-02T02:07:28.424Z,1.58
2022-10-02T02:10:10.781Z,1.30
2022-10-02T02:12:47.643Z,1.48
2022-10-02T02:15:26.218Z,2.85
2022-10-02T02:18:03.518Z,1.52
2022-10-02T02:20:36.908Z,1.45
2022-10-02T02:23:16.568Z,0.98
2022-10-02T02:25:48.884Z,0.98
2022-10-02T02:28:20.261Z,1.20
2022-10-02T02:30:51.195Z,1.20
2022-10-02T02:33:25.285Z,0.88
2022-10-02T02:35:56.839Z,1.10
2022-10-02T02:38:31.314Z,1.25
2022-10-02T02:41:06.799Z,1.02
2022-10-02T02:44:14.072Z,1.10
2022-10-02T02:47:06.978Z,1.10
2022-10-02T02:49:44.404Z,1.23
2022-10-02T02:52:22.090Z,1.20
2022-10-02T02:54:55.128Z,1.40
2022-10-02T02:57:44.134Z,1.35
2022-10-02T03:00:15.775Z,1.63
2022-10-02T03:02:43.105Z,1.60
2022-10-02T03:05:16.351Z,1.25
2022-10-02T03:07:55.895Z,1.70
2022-10-02T03:11:03.649Z,1.95
2022-10-02T03:13:55.644Z,1.33
2022-10-02T03:16:31.861Z,1.70
2022-10-02T03:19:16.706Z,1.60
2022-10-02T03:21:55.856Z,1.90
2022-10-02T03:24:38.912Z,1.83
2022-10-02T03:27:48.974Z,1.73
2022-10-02T03:30:26.275Z,1.83
2022-10-02T03:32:56.508Z,1.67
2022-10-02T03:35:25.504Z,1.52
2022-10-02T03:38:00.668Z,2.03
2022-10-02T03:40:28.288Z,1.80
2022-10-02T03:42:58.496Z,1.80
2022-10-02T03:45:49.471Z,1.67
2022-10-02T03:48:14.724Z,1.52
2022-10-02T03:50:41.935Z,1.70
2022-10-02T03:53:17.618Z,1.98
2022-10-02T03:55:55.964Z,1.80
2022-10-02T03:58:23.754Z,2.22
2022-10-02T04:01:00.469Z,1.70
2022-10-02T04:03:33.796Z,1.80
2022-10-02T04:06:19.501Z,1.70
2022-10-02T04:09:02.580Z,1.55
2022-10-02T04:11:48.479Z,1.55
2022-10-02T04:14:24.812Z,1.40
2022-10-02T04:17:05.840Z,2.28
2022-10-02T04:19:56.981Z,1.73
2022-10-02T04:22:37.008Z,1.60
2022-10-02T04:25:14.604Z,1.50
2022-10-02T04:27:51.453Z,1.30
2022-10-02T04:30:20.573Z,1.27
2022-10-02T04:32:48.539Z,1.40
2022-10-02T04:35:38.054Z,1.08
2022-10-02T04:38:40.642Z,1.15
2022-10-02T04:41:22.394Z,1.20
2022-10-02T04:44:25.769Z,1.08
2022-10-02T04:47:34.205Z,1.80
2022-10-02T04:50:08.706Z,0.90
2022-10-02T04:52:57.200Z,1.00
2022-10-02T04:55:42.004Z,1.02
2022-10-02T04:58:23.364Z,1.00
2022-10-02T05:01:09.368Z,1.08
2022-10-02T05:04:04.047Z,0.95
2022-10-02T05:06:44.759Z,1.10
2022-10-02T05:09:37.958Z,0.93
2022-10-02T05:12:12.316Z,0.93
2022-10-02T05:15:16.854Z,1.08
2022-10-02T05:17:57.825Z,1.00
2022-10-02T05:20:48.088Z,1.33
2022-10-02T05:23:43.345Z,1.20
2022-10-02T05:26:32.084Z,0.90
2022-10-02T05:29:20.985Z,1.40
2022-10-02T05:32:05.805Z,1.77
2022-10-02T05:34:51.189Z,1.20
2022-10-02T05:37:39.622Z,1.45
2022-10-02T05:40:31.809Z,0.93
2022-10-02T05:43:01.838Z,0.88
2022-10-02T05:45:38.068Z,0.95
2022-10-02T05:50:41.913Z,1.38
2022-10-02T05:53:19.822Z,1.23
2022-10-02T05:55:53.789Z,1.13
2022-10-02T05:58:37.044Z,1.20
2022-10-02T06:01:16.390Z,0.90
2022-10-02T06:03:51.646Z,1.20
2022-10-02T06:06:29.469Z,1.05
2022-10-02T06:09:03.446Z,0.98
2022-10-02T06:11:36.344Z,1.20
2022-10-02T06:14:14.489Z,1.10
2022-10-02T06:16:52.001Z,0.88
2022-10-02T06:19:32.703Z,1.30
2022-10-02T06:22:08.432Z,1.33
2022-10-02T06:24:44.013Z,1.17
2022-10-02T06:27:24.659Z,1.10
2022-10-02T06:30:00.093Z,1.33
2022-10-02T06:32:44.076Z,1.17
2022-10-02T06:35:16.918Z,1.40
2022-10-02T06:37:57.388Z,3.95
2022-10-02T06:40:39.670Z,1.38
2022-10-02T06:43:23.163Z,1.50
2022-10-02T06:46:07.375Z,2.00
2022-10-02T06:48:59.533Z,1.65
2022-10-02T06:51:38.800Z,1.73
2022-10-02T06:54:06.263Z,2.28
2022-10-02T06:56:46.938Z,2.40
2022-10-02T06:59:27.329Z,1.75
2022-10-02T07:02:03.635Z,2.95
2022-10-02T07:04:55.438Z,2.22
2022-10-02T07:08:04.430Z,1.50
2022-10-02T07:10:53.148Z,2.28
2022-10-02T07:13:27.925Z,3.10
2022-10-02T07:16:27.735Z,1.60
2022-10-02T07:19:19.418Z,1.75
2022-10-02T07:22:20.312Z,1.85
2022-10-02T07:25:16.261Z,2.40
2022-10-02T07:27:56.132Z,1.83
2022-10-02T07:30:23.611Z,2.50
2022-10-02T07:33:19.742Z,2.00
2022-10-02T07:36:00.003Z,1.47
2022-10-02T07:39:05.762Z,1.45
2022-10-02T07:41:38.761Z,1.70
2022-10-02T07:44:14.860Z,1.73
2022-10-02T07:49:37.756Z,2.00
2022-10-02T07:52:07.868Z,1.67
2022-10-02T07:54:48.060Z,1.55
2022-10-02T07:57:41.670Z,1.70
2022-10-02T08:00:15.818Z,1.52
2022-10-02T08:02:52.273Z,1.73
2022-10-02T08:05:33.510Z,1.67
2022-10-02T08:08:07.269Z,1.40
2022-10-02T08:10:41.989Z,1.80
2022-10-02T08:13:23.798Z,3.83
2022-10-02T08:15:56.516Z,2.75
2022-10-02T08:18:56.798Z,2.75
2022-10-02T08:21:26.378Z,2.50
2022-10-02T08:24:02.251Z,3.90
2022-10-02T08:26:56.062Z,2.80
2022-10-02T08:29:34.951Z,2.80
2022-10-02T08:32:03.035Z,2.90
2022-10-02T08:34:32.617Z,1.50
2022-10-02T08:37:24.541Z,1.50
2022-10-02T08:40:19.451Z,1.30
2022-10-02T08:43:13.611Z,1.85
2022-10-02T08:46:03.239Z,2.17
2022-10-02T08:48:55.630Z,2.28
2022-10-02T08:51:33.337Z,1.40
2022-10-02T08:54:32.617Z,2.75
2022-10-02T08:57:12.817Z,2.88
2022-10-02T09:00:10.417Z,2.28
2022-10-02T09:03:05.950Z,1.10
2022-10-02T09:06:13.164Z,2.83
2022-10-02T09:08:46.943Z,4.25
2022-10-02T09:11:29.568Z,6.50
2022-10-02T09:14:10.179Z,4.82
2022-10-02T09:16:58.748Z,4.20
2022-10-02T09:19:59.909Z,2.97
2022-10-02T09:22:54.197Z,2.22
2022-10-02T09:25:46.552Z,8.07
2022-10-02T09:28:43.756Z,2.30
2022-10-02T09:31:44.756Z,4.47
2022-10-02T09:34:50.478Z,3.58
2022-10-02T09:37:41.448Z,2.25
2022-10-02T09:40:21.342Z,1.38
2022-10-02T09:43:03.907Z,2.17
2022-10-02T09:45:37.361Z,1.35
2022-10-02T09:48:18.201Z,1.50
2022-10-02T09:51:13.016Z,1.55
2022-10-02T09:53:52.404Z,1.23
2022-10-02T09:57:04.467Z,1.50
2022-10-02T09:59:54.896Z,1.35
2022-10-02T10:02:49.794Z,1.30
2022-10-02T10:05:35.918Z,1.23
2022-10-02T10:08:32.412Z,2.35
2022-10-02T10:11:32.437Z,6.13
2022-10-02T10:14:38.176Z,2.28
2022-10-02T10:17:21.624Z,1.23
2022-10-02T10:20:09.968Z,1.48
2022-10-02T10:22:59.127Z,9.35
2022-10-02T10:25:43.954Z,9.15
2022-10-02T10:28:28.799Z,3.72
2022-10-02T10:31:31.465Z,1.30
2022-10-02T10:34:34.046Z,1.30
2022-10-02T10:37:24.356Z,2.20
2022-10-02T10:40:10.699Z,1.83
2022-10-02T10:43:08.676Z,1.27
2022-10-02T10:45:54.405Z,1.40
2022-10-02T10:48:49.530Z,1.10
2022-10-02T10:51:54.176Z,1.08
2022-10-02T10:54:51.989Z,2.50
2022-10-02T10:57:41.656Z,1.55
2022-10-02T11:00:15.760Z,1.33
2022-10-02T11:03:10.957Z,1.30
2022-10-02T11:06:05.737Z,1.45
2022-10-02T11:09:08.236Z,1.10
2022-10-02T11:11:57.819Z,1.67
2022-10-02T11:15:03.648Z,1.00
2022-10-02T11:17:48.563Z,3.33
2022-10-02T11:20:35.929Z,2.65
2022-10-02T11:23:09.333Z,1.00
2022-10-02T11:25:59.289Z,2.60
2022-10-02T11:28:43.380Z,1.75
2022-10-02T11:31:48.113Z,1.92
2022-10-02T11:34:24.796Z,0.63
2022-10-02T11:37:18.462Z,0.80
2022-10-02T11:39:54.641Z,1.08
2022-10-02T11:43:11.729Z,1.50
2022-10-02T11:46:02.906Z,1.20
2022-10-02T11:48:36.302Z,1.08
2022-10-02T11:51:33.618Z,1.60
2022-10-02T11:54:19.681Z,1.70
2022-10-02T11:57:01.786Z,1.20
2022-10-02T11:59:47.884Z,1.05
2022-10-02T12:02:27.328Z,1.55
2022-10-02T12:05:16.551Z,3.20
2022-10-02T12:08:07.162Z,1.55
2022-10-02T12:10:44.707Z,1.85
2022-10-02T12:13:31.332Z,2.10
2022-10-02T12:16:20.174Z,1.75
2022-10-02T12:19:21.025Z,1.27
2022-10-02T12:22:40.377Z,1.15
2022-10-02T12:26:11.447Z,1.35
2022-10-02T12:28:56.164Z,1.63
2022-10-02T12:31:51.667Z,2.17
2022-10-02T12:34:25.081Z,1.60
2022-10-02T12:36:58.505Z,1.90
2022-10-02T12:39:49.511Z,2.10
2022-10-02T12:42:44.330Z,1.75
2022-10-02T12:45:28.474Z,2.70
2022-10-02T12:47:58.941Z,1.27
2022-10-02T12:50:54.029Z,0.98
2022-10-02T12:53:46.401Z,1.25
2022-10-02T12:56:46.109Z,1.40
2022-10-02T12:59:42.928Z,1.85
2022-10-02T13:02:49.173Z,1.15
2022-10-02T13:05:32.399Z,1.25
2022-10-02T13:08:25.328Z,1.52
2022-10-02T13:11:01.758Z,1.70
2022-10-02T13:13:35.669Z,1.63
2022-10-02T13:16:58.246Z,1.23
2022-10-02T13:19:40.172Z,1.15
2022-10-02T13:22:11.209Z,1.30
2022-10-02T13:25:18.195Z,1.30
2022-10-02T13:28:13.757Z,1.55
2022-10-02T13:31:05.977Z,1.13
2022-10-02T13:34:06.519Z,1.45
2022-10-02T13:37:15.771Z,1.65
2022-10-02T13:40:06.352Z,1.20
2022-10-02T13:43:06.299Z,1.15
2022-10-02T13:45:39.317Z,1.55
2022-10-02T13:48:47.947Z,1.48
2022-10-02T13:51:27.819Z,7.05
2022-10-02T13:54:18.269Z,3.92
2022-10-02T13:57:12.729Z,1.52
2022-10-02T14:00:02.281Z,1.30
2022-10-02T14:03:04.716Z,1.40
2022-10-02T14:05:38.528Z,1.33
2022-10-02T14:08:31.795Z,1.55
2022-10-02T14:11:29.239Z,2.30
2022-10-02T14:14:12.407Z,1.17
2022-10-02T14:17:08.594Z,1.35
2022-10-02T14:20:03.021Z,1.60
2022-10-02T14:22:39.538Z,2.35
2022-10-02T14:25:34.450Z,2.70
2022-10-02T14:28:04.743Z,2.85
2022-10-02T14:31:04.126Z,2.95
2022-10-02T14:33:52.938Z,2.42
2022-10-02T14:36:25.956Z,1.88
2022-10-02T14:39:18.901Z,2.13
2022-10-02T14:41:56.071Z,2.13
2022-10-02T14:44:34.618Z,2.30
2022-10-02T14:47:13.280Z,2.22
2022-10-02T14:49:49.186Z,2.17
2022-10-02T14:52:34.753Z,2.20
2022-10-02T14:55:51.368Z,1.95
2022-10-02T14:58:18.649Z,2.65
2022-10-02T15:00:52.104Z,2.20
2022-10-02T15:03:56.924Z,2.53
2022-10-02T15:06:56.679Z,3.50
2022-10-02T15:09:26.472Z,3.10
2022-10-02T15:12:04.641Z,4.70
2022-10-02T15:14:50.408Z,3.08
2022-10-02T15:17:49.011Z,4.78
2022-10-02T15:20:43.793Z,4.25
2022-10-02T15:23:21.279Z,3.05
2022-10-02T15:26:16.082Z,2.88
2022-10-02T15:28:51.828Z,3.80
2022-10-02T15:31:55.828Z,5.38
2022-10-02T15:34:47.911Z,5.40
2022-10-02T15:37:43.457Z,3.80
2022-10-02T15:40:42.794Z,5.07
2022-10-02T15:43:16.610Z,4.22
2022-10-02T15:46:11.676Z,6.85
2022-10-02T15:49:04.939Z,18.40
2022-10-02T15:51:59.656Z,19.70
2022-10-02T15:54:54.524Z,9.65
2022-10-02T15:57:53.650Z,4.95
2022-10-02T16:00:25.628Z,11.60
2022-10-02T16:02:57.611Z,9.13
2022-10-02T16:05:30.982Z,4.82
2022-10-02T16:08:23.676Z,2.33
2022-10-02T16:11:32.667Z,2.30
2022-10-02T16:14:37.041Z,3.00
2022-10-02T16:17:16.469Z,4.85
2022-10-02T16:20:22.772Z,3.83
2022-10-02T16:23:09.508Z,3.47
2022-10-02T16:26:10.852Z,2.33
2022-10-02T16:28:55.809Z,2.47
2022-10-02T16:31:57.287Z,2.72
2022-10-02T16:34:42.482Z,3.47
2022-10-02T16:37:27.481Z,5.28
2022-10-02T16:40:03.720Z,4.85
2022-10-02T16:42:53.489Z,4.60
2022-10-02T16:45:33.223Z,4.97
2022-10-02T16:48:10.367Z,3.90
2022-10-02T16:51:05.540Z,3.85
2022-10-02T16:53:44.915Z,3.97
2022-10-02T16:56:55.273Z,5.38
2022-10-02T16:59:28.546Z,5.38
2022-10-02T17:02:18.313Z,5.40
2022-10-02T17:04:58.562Z,5.20
2022-10-02T17:07:50.937Z,3.35
2022-10-02T17:10:22.717Z,2.88
2022-10-02T17:13:01.159Z,2.20
2022-10-02T17:15:40.731Z,2.85
2022-10-02T17:18:47.900Z,3.20
2022-10-02T17:23:58.956Z,2.88
2022-10-02T17:26:40.974Z,5.13
2022-10-02T17:29:26.868Z,4.38
2022-10-02T17:31:58.736Z,4.95
2022-10-02T17:34:27.444Z,4.78
2022-10-02T17:37:09.905Z,4.47
2022-10-02T17:39:50.917Z,3.55
2022-10-02T17:42:41.990Z,3.40
2022-10-02T17:45:31.338Z,3.03
2022-10-02T17:48:15.718Z,2.40
2022-10-02T17:50:57.651Z,2.78
2022-10-02T17:53:52.647Z,1.85
2022-10-02T17:56:40.601Z,2.53
2022-10-02T17:59:26.358Z,2.65
2022-10-02T18:02:00.071Z,1.85
2022-10-02T18:04:49.207Z,2.13
2022-10-02T18:07:38.579Z,3.08
2022-10-02T18:10:34.211Z,4.13
2022-10-02T18:13:20.347Z,2.88
2022-10-02T18:16:22.481Z,3.40
2022-10-02T18:19:21.875Z,2.92
2022-10-02T18:22:16.667Z,2.63
2022-10-02T18:24:55.448Z,2.42
2022-10-02T18:27:48.725Z,2.70
2022-10-02T18:30:19.581Z,2.78
2022-10-02T18:33:05.150Z,1.95
2022-10-02T18:35:36.527Z,2.33
2022-10-02T18:38:20.277Z,2.80
2022-10-02T18:40:56.180Z,3.03
2022-10-02T18:43:47.856Z,3.75
2022-10-02T18:46:26.481Z,3.67
2022-10-02T18:49:23.038Z,4.03
2022-10-02T18:54:45.562Z,10.48
2022-10-02T18:57:24.997Z,10.63
2022-10-02T19:00:05.067Z,10.38
2022-10-02T19:02:45.689Z,8.90
2022-10-02T19:05:22.776Z,7.22
2022-10-02T19:08:02.992Z,6.43
2022-10-02T19:10:33.066Z,4.53
2022-10-02T19:13:17.977Z,3.72
2022-10-02T19:15:50.870Z,5.10
2022-10-02T19:18:39.870Z,4.68
2022-10-02T19:21:13.731Z,4.82
2022-10-02T19:23:51.241Z,3.55
2022-10-02T19:26:25.437Z,3.35
2022-10-02T19:28:59.108Z,3.70
2022-10-02T19:31:29.444Z,4.07
2022-10-02T19:34:02.768Z,4.35
2022-10-02T19:36:43.019Z,3.35
2022-10-02T19:39:32.999Z,4.63
2022-10-02T19:42:06.967Z,5.03
2022-10-02T19:44:44.770Z,3.35
2022-10-02T19:47:49.984Z,2.90
2022-10-02T19:50:38.231Z,2.70
2022-10-02T19:53:16.780Z,2.78
2022-10-02T19:55:46.620Z,2.63
2022-10-02T19:58:20.709Z,2.33
2022-10-02T20:00:53.121Z,2.88
2022-10-02T20:03:23.539Z,2.97
2022-10-02T20:05:55.430Z,4.38
2022-10-02T20:08:29.249Z,2.90
2022-10-02T20:11:08.486Z,2.85
2022-10-02T20:13:42.311Z,3.28
2022-10-02T20:16:37.392Z,2.90
2022-10-02T20:19:07.885Z,3.25
2022-10-02T20:21:46.948Z,3.33
2022-10-02T20:24:45.848Z,3.20
2022-10-02T20:27:19.478Z,3.92
2022-10-02T20:29:54.609Z,2.83
2022-10-02T20:32:28.794Z,3.30
2022-10-02T20:35:21.977Z,1.52
2022-10-02T20:37:54.738Z,1.30
2022-10-02T20:40:27.768Z,1.38
2022-10-02T20:43:22.335Z,0.95
2022-10-02T20:46:12.018Z,1.45
2022-10-02T20:49:19.588Z,1.23
2022-10-02T20:55:08.497Z,0.98
2022-10-02T20:58:00.063Z,1.20
2022-10-02T21:00:43.268Z,1.30
2022-10-02T21:03:29.462Z,4.53
2022-10-02T21:06:14.088Z,3.42
2022-10-02T21:09:15.339Z,2.40
2022-10-02T21:12:05.672Z,2.75
2022-10-02T21:14:53.745Z,4.05
2022-10-02T21:18:07.197Z,3.63
2022-10-02T21:21:05.122Z,2.58
2022-10-02T21:24:06.359Z,2.05
2022-10-02T21:27:11.011Z,2.40
2022-10-02T21:30:02.987Z,2.75
2022-10-02T21:33:00.039Z,5.47
2022-10-02T21:35:56.077Z,4.45
2022-10-02T21:38:51.197Z,3.00
2022-10-02T21:41:37.111Z,2.63
2022-10-02T21:44:24.588Z,2.08
2022-10-02T21:47:18.987Z,1.98
2022-10-02T21:50:22.657Z,2.17
2022-10-02T21:53:11.781Z,1.52
2022-10-02T21:55:58.513Z,1.75
2022-10-02T21:59:08.061Z,1.23
2022-10-02T22:02:07.295Z,0.95
2022-10-02T22:05:09.080Z,1.60
2022-10-02T22:07:49.921Z,1.13
2022-10-02T22:10:55.896Z,1.17
2022-10-02T22:13:40.779Z,1.40
2022-10-02T22:16:11.113Z,1.80
2022-10-02T22:19:19.002Z,1.20
2022-10-02T22:22:21.187Z,1.40
2022-10-02T22:25:09.942Z,1.48
2022-10-02T22:28:14.935Z,1.27
2022-10-02T22:31:11.995Z,1.38
2022-10-02T22:34:01.171Z,1.80
2022-10-02T22:36:43.146Z,1.13
2022-10-02T22:39:42.818Z,1.80
2022-10-02T22:42:45.877Z,2.08
2022-10-02T22:45:23.010Z,1.42
2022-10-02T22:48:01.257Z,1.73
2022-10-02T22:50:36.112Z,1.70
2022-10-02T22:53:29.862Z,2.22
2022-10-02T22:55:58.551Z,2.15
2022-10-02T22:58:42.186Z,2.38
2022-10-02T23:01:27.176Z,2.10
2022-10-02T23:04:50.271Z,1.48
2022-10-02T23:07:28.939Z,2.55
2022-10-02T23:10:14.201Z,1.73
2022-10-02T23:12:54.048Z,1.75
2022-10-02T23:15:42.971Z,1.80
2022-10-02T23:18:25.276Z,1.70
2022-10-02T23:21:16.846Z,2.00
2022-10-02T23:24:02.797Z,1.65
2022-10-02T23:26:33.477Z,1.80
2022-10-02T23:29:15.047Z,1.75
2022-10-02T23:31:54.461Z,2.25
2022-10-02T23:34:49.756Z,2.10
2022-10-02T23:37:25.701Z,1.98
2022-10-02T23:40:47.326Z,2.20
2022-10-02T23:43:24.737Z,2.83
2022-10-02T23:46:04.171Z,2.47
2022-10-02T23:48:32.725Z,1.90
2022-10-02T23:51:32.116Z,1.77
2022-10-02T23:54:11.308Z,1.80
2022-10-02T23:57:02.511Z,2.75
2022-10-02T23:59:55.312Z,1.77
